Calhoun, Georgia
Current Conditions -  °F | °C
As of 6:15 PM on Thursday 27 Nov 2014 (Local Time) from KDNN Reporting Station
Overcast Overcast  
Wind Chill: 30°   Ceiling: 4300
Heat Index: 37°   Visibility: 10mi
Dew Point: 28°   Wind: 12mph
Humidity: 70%   Direction: 310°NW
Pressure: 30.38"   Gusts: 16mph
Location:  34.51°N, 84.95°W
Report Text: KDNN 272315Z AUTO 31010G14KT 10SM OVC043 03/M02 A3038 RMK AO2
Loading
Personal Weather Stations






























Interactive Weather Map New forecast layout! Learn more

10-Day Weather Forecast

Advertisements
Track Severe Weather on mobile